Time;durP1;ratioP1;P1;durP2;ratioP2;P2;SDS_P1;SDS_P2;PMS_P1;PMS_P2;Temp;Humidity;BMP_temperature;BMP_pressure;BME280_temperature;BME280_humidity;BME280_pressure;Samples;Min_cycle;Max_cycle;Signal;HPM_P1;HPM_P2
2022/02/28 00:02:18;;;;;;;11.87;6.83;;;;;;;;;;4972207;28;20481;-94
2022/02/28 00:04:45;;;;;;;15.63;7.57;;;;;;;;;;4976359;28;20494;-93
2022/02/28 00:07:12;;;;;;;14.33;6.93;;;;;;;;;;4976146;28;20969;-92
2022/02/28 00:09:40;;;;;;;11.10;7.17;;;;;;;;;;4979952;28;20458;-93
2022/02/28 00:12:09;;;;;;;11.53;7.67;;;;;;;;;;4977183;28;20509;-93
2022/02/28 00:14:39;;;;;;;10.93;6.70;;;;;;;;;;4977219;28;20458;-94
2022/02/28 00:17:06;;;;;;;11.70;7.00;;;-0.80;99.90;;;;;;4978322;28;20563;-94
2022/02/28 00:19:34;;;;;;;11.60;7.50;;;;;;;;;;4971268;28;20554;-93
2022/02/28 00:22:01;;;;;;;12.50;7.60;;;;;;;;;;4980029;28;20450;-94
2022/02/28 00:24:30;;;;;;;12.60;7.60;;;;;;;;;;4975484;28;20561;-95
2022/02/28 00:26:57;;;;;;;14.80;6.90;;;;;;;;;;4976080;28;20457;-95
2022/02/28 00:29:26;;;;;;;13.27;6.73;;;;;;;;;;4976317;28;20449;-94
2022/02/28 00:31:54;;;;;;;14.90;7.53;;;;;;;;;;4979417;28;20472;-96
2022/02/28 00:34:24;;;;;;;12.20;6.47;;;;;;;;;;4975909;28;20486;-94
2022/02/28 00:36:56;;;;;;;14.30;6.47;;;;;;;;;;4990686;28;20945;-95
2022/02/28 00:39:23;;;;;;;10.83;6.60;;;;;;;;;;4998861;28;20884;-92
2022/02/28 00:41:50;;;;;;;11.67;7.10;;;;;;;;;;4997630;28;20460;-91
2022/02/28 00:44:18;;;;;;;15.53;7.27;;;;;;;;;;4997102;28;20963;-95
2022/02/28 00:46:47;;;;;;;15.30;7.53;;;;;;;;;;4998941;28;20820;-92
2022/02/28 00:49:14;;;;;;;16.20;7.20;;;;;;;;;;4995904;28;20438;-93
2022/02/28 00:51:44;;;;;;;13.33;6.83;;;;;;;;;;4994882;28;20465;-94
2022/02/28 00:54:14;;;;;;;12.93;7.63;;;;;;;;;;4994137;28;20453;-93
2022/02/28 00:56:41;;;;;;;11.93;6.40;;;;;;;;;;4995240;28;20947;-95
2022/02/28 00:59:08;;;;;;;9.87;6.53;;;;;;;;;;4996896;28;20462;-95
2022/02/28 01:01:39;;;;;;;13.67;7.00;;;;;;;;;;4996788;28;20485;-94
2022/02/28 01:04:10;;;;;;;13.07;7.63;;;;;;;;;;4998698;28;20540;-95
2022/02/28 01:06:37;;;;;;;10.97;7.10;;;;;;;;;;4998467;28;20457;-94
2022/02/28 01:09:05;;;;;;;10.10;6.90;;;;;;;;;;4997832;28;20810;-94
2022/02/28 01:11:32;;;;;;;14.37;7.63;;;;;;;;;;4998336;28;20448;-95
2022/02/28 01:13:59;;;;;;;12.83;7.57;;;;;;;;;;4996358;28;20952;-93
2022/02/28 01:16:27;;;;;;;10.90;6.53;;;;;;;;;;4996566;28;20461;-93
2022/02/28 01:18:57;;;;;;;14.27;7.00;;;;;;;;;;4997322;28;20453;-93
2022/02/28 01:21:26;;;;;;;18.63;7.17;;;;;;;;;;4996209;28;20453;-93
2022/02/28 01:23:58;;;;;;;13.17;7.80;;;;;;;;;;4997606;28;20937;-91
2022/02/28 01:26:26;;;;;;;12.97;7.67;;;;;;;;;;4996366;28;20507;-93
2022/02/28 01:28:55;;;;;;;13.60;7.50;;;;;;;;;;4996942;28;20467;-94
2022/02/28 01:31:22;;;;;;;12.73;8.17;;;;;;;;;;4997350;28;20461;-93
2022/02/28 01:33:53;;;;;;;15.27;8.10;;;;;;;;;;4996713;28;20952;-94
2022/02/28 01:36:23;;;;;;;14.70;6.47;;;;;;;;;;4996546;28;20496;-94
2022/02/28 01:38:52;;;;;;;9.87;5.70;;;;;;;;;;4996300;28;20458;-94
2022/02/28 01:41:21;;;;;;;11.10;6.87;;;;;;;;;;4996765;28;20467;-94
2022/02/28 01:43:48;;;;;;;13.40;7.30;;;;;;;;;;4998286;28;20457;-96
2022/02/28 01:46:15;;;;;;;11.80;6.97;;;;;;;;;;4994500;28;20489;-94
2022/02/28 01:48:43;;;;;;;11.00;6.60;;;;;;;;;;4998385;28;20921;-93
2022/02/28 01:51:12;;;;;;;13.00;7.80;;;;;;;;;;4994553;28;20552;-94
2022/02/28 01:53:40;;;;;;;12.10;7.53;;;;;;;;;;4997479;28;20461;-93
2022/02/28 01:56:09;;;;;;;14.27;7.70;;;;;;;;;;4997733;28;20477;-94
2022/02/28 01:58:45;;;;;;;13.23;6.70;;;-1.70;99.90;;;;;;4997964;28;20455;-95
2022/02/28 02:01:15;;;;;;;14.70;7.43;;;;;;;;;;4992834;28;20476;-94
2022/02/28 02:03:42;;;;;;;14.43;8.67;;;;;;;;;;4998401;28;20468;-94
2022/02/28 02:06:10;;;;;;;11.37;6.80;;;;;;;;;;4999956;28;20499;-94
2022/02/28 02:08:37;;;;;;;8.40;5.57;;;;;;;;;;5001807;28;20466;-93
2022/02/28 02:11:05;;;;;;;14.20;7.13;;;;;;;;;;5001765;28;20468;-94
2022/02/28 02:13:34;;;;;;;15.20;6.40;;;;;;;;;;5004021;28;20812;-94
2022/02/28 02:16:02;;;;;;;10.50;6.00;;;;;;;;;;5003269;28;20456;-93
2022/02/28 02:18:29;;;;;;;12.00;6.53;;;;;;;;;;5001414;28;20945;-95
2022/02/28 02:20:59;;;;;;;14.97;8.10;;;;;;;;;;5000264;28;20464;-94
2022/02/28 02:23:27;;;;;;;8.67;6.00;;;;;;;;;;4992122;28;20465;-94
2022/02/28 02:25:55;;;;;;;13.90;7.57;;;;;;;;;;4999145;28;20489;-93
2022/02/28 02:28:23;;;;;;;8.33;5.70;;;;;;;;;;4996231;28;20465;-94
2022/02/28 02:30:51;;;;;;;11.63;7.33;;;;;;;;;;4995961;28;20493;-95
2022/02/28 02:33:20;;;;;;;11.93;5.73;;;;;;;;;;5000321;28;20457;-94
2022/02/28 02:35:51;;;;;;;11.90;6.77;;;;;;;;;;4996966;28;20487;-94
2022/02/28 02:38:20;;;;;;;11.70;5.93;;;;;;;;;;4999569;28;20459;-94
2022/02/28 02:40:47;;;;;;;11.07;6.70;;;;;;;;;;4999062;28;20457;-96
2022/02/28 02:43:15;;;;;;;9.37;6.00;;;;;;;;;;4997059;28;20842;-94
2022/02/28 02:45:42;;;;;;;9.10;6.33;;;;;;;;;;4996684;28;20495;-96
2022/02/28 02:48:13;;;;;;;7.30;5.80;;;;;;;;;;4995481;28;20457;-95
2022/02/28 02:50:40;;;;;;;9.17;5.87;;;;;;;;;;4998168;28;20887;-94
2022/02/28 02:53:08;;;;;;;8.23;5.73;;;;;;;;;;4997314;28;20457;-94
2022/02/28 02:55:36;;;;;;;10.13;5.67;;;;;;;;;;5000795;28;20463;-92
2022/02/28 02:58:04;;;;;;;10.20;6.63;;;;;;;;;;5017837;28;20509;-95
2022/02/28 03:00:32;;;;;;;8.47;6.33;;;;;;;;;;5004392;28;20568;-95
2022/02/28 03:02:59;;;;;;;8.73;5.93;;;;;;;;;;4993023;28;20818;-96
2022/02/28 03:05:27;;;;;;;11.00;5.93;;;;;;;;;;4993130;28;20483;-95
2022/02/28 03:07:54;;;;;;;9.30;6.70;;;;;;;;;;4995032;28;20529;-94
2022/02/28 03:10:22;;;;;;;9.43;6.30;;;;;;;;;;4998069;28;20540;-95
2022/02/28 03:12:50;;;;;;;11.53;6.63;;;;;;;;;;4995456;28;20462;-94
2022/02/28 03:15:18;;;;;;;9.20;6.43;;;;;;;;;;4993756;28;20461;-96
2022/02/28 03:17:45;;;;;;;8.90;5.53;;;;;;;;;;4995650;28;20449;-94
2022/02/28 03:20:13;;;;;;;11.47;7.03;;;;;;;;;;4997965;28;20825;-94
2022/02/28 03:22:41;;;;;;;10.40;6.70;;;;;;;;;;4998551;28;20452;-94
2022/02/28 03:25:09;;;;;;;10.57;6.67;;;;;;;;;;4994683;28;20454;-94
2022/02/28 03:27:37;;;;;;;9.43;6.43;;;;;;;;;;4997262;28;20457;-94
2022/02/28 03:30:07;;;;;;;10.83;7.00;;;;;;;;;;4997457;28;20531;-94
2022/02/28 03:32:35;;;;;;;12.90;6.47;;;;;;;;;;4996730;28;20556;-96
2022/02/28 03:35:02;;;;;;;9.93;6.37;;;;;;;;;;4997371;28;20477;-94
2022/02/28 03:37:30;;;;;;;8.93;5.33;;;;;;;;;;4996551;28;20504;-93
2022/02/28 03:39:57;;;;;;;12.10;6.53;;;;;;;;;;4999566;28;20458;-94
2022/02/28 03:42:25;;;;;;;9.43;6.10;;;;;;;;;;4999881;28;20793;-93
2022/02/28 03:44:52;;;;;;;11.70;6.77;;;;;;;;;;5000266;28;20457;-92
2022/02/28 03:47:22;;;;;;;12.63;5.83;;;;;;;;;;4998179;28;20497;-94
2022/02/28 03:49:49;;;;;;;9.53;6.30;;;;;;;;;;5000716;28;20534;-96
2022/02/28 03:52:17;;;;;;;9.43;6.20;;;;;;;;;;4997649;28;20450;-94
2022/02/28 03:54:45;;;;;;;11.17;6.67;;;;;;;;;;4999409;28;20447;-92
2022/02/28 03:57:13;;;;;;;7.97;5.60;;;;;;;;;;5000352;28;20462;-92
2022/02/28 03:59:41;;;;;;;11.17;7.13;;;;;;;;;;4999764;28;20483;-93
2022/02/28 04:02:09;;;;;;;8.37;5.87;;;;;;;;;;4997754;28;20906;-93
2022/02/28 04:04:38;;;;;;;10.67;6.23;;;;;;;;;;5002147;28;20801;-94
2022/02/28 04:07:06;;;;;;;9.00;6.50;;;;;;;;;;5000685;28;20493;-94
2022/02/28 04:09:36;;;;;;;10.07;6.77;;;;;;;;;;4998798;28;20463;-94
2022/02/28 04:12:03;;;;;;;13.30;7.03;;;;;;;;;;5005449;28;20446;-92
2022/02/28 04:14:32;;;;;;;10.67;6.00;;;;;;;;;;5002793;28;20453;-94
2022/02/28 04:17:08;;;;;;;10.93;5.57;;;;;;;;;;5000876;28;20508;-93
2022/02/28 04:19:38;;;;;;;8.57;5.87;;;;;;;;;;5005097;28;20441;-92
2022/02/28 04:22:06;;;;;;;10.60;5.70;;;;;;;;;;5004403;28;20478;-92
2022/02/28 04:24:35;;;;;;;8.93;5.57;;;;;;;;;;5000722;28;20525;-93
2022/02/28 04:27:03;;;;;;;11.57;6.57;;;;;;;;;;5004923;28;20485;-93
2022/02/28 04:29:32;;;;;;;11.23;6.70;;;;;;;;;;5002589;28;20434;-92
2022/02/28 04:32:00;;;;;;;11.73;6.63;;;;;;;;;;5003069;28;20473;-94
2022/02/28 04:34:29;;;;;;;12.43;5.70;;;;;;;;;;5002327;28;20433;-92
2022/02/28 04:37:11;;;;;;;10.10;6.27;;;;;;;;;;5007390;28;20973;-93
2022/02/28 04:39:39;;;;;;;11.70;6.30;;;;;;;;;;5007124;28;20473;-93
2022/02/28 04:42:07;;;;;;;10.10;5.90;;;;;;;;;;5005506;28;20456;-93
2022/02/28 04:44:36;;;;;;;10.23;6.13;;;;;;;;;;5006807;28;20836;-95
2022/02/28 04:47:08;;;;;;;9.57;5.97;;;-3.10;99.90;;;;;;5006491;28;21067;-91
2022/02/28 04:49:42;;;;;;;11.27;6.53;;;;;;;;;;5000238;28;20440;-91
2022/02/28 04:52:13;;;;;;;9.63;6.07;;;;;;;;;;5002306;28;20464;-93
2022/02/28 04:54:45;;;;;;;9.70;5.73;;;;;;;;;;5004221;28;20438;-93
2022/02/28 04:57:12;;;;;;;10.43;6.50;;;;;;;;;;5006482;28;20470;-94
2022/02/28 04:59:43;;;;;;;9.93;6.50;;;;;;;;;;5011129;28;20814;-91
2022/02/28 05:02:11;;;;;;;11.13;6.57;;;-3.10;99.90;;;;;;5012728;28;20460;-94
2022/02/28 05:04:39;;;;;;;10.23;5.90;;;-3.10;99.90;;;;;;5010354;28;20428;-91
2022/02/28 05:10:06;;;;;;;9.83;6.13;;;;;;;;;;5132108;27;20522;-92
2022/02/28 05:12:34;;;;;;;11.30;6.40;;;;;;;;;;5127008;28;20456;-92
2022/02/28 05:15:05;;;;;;;10.70;5.90;;;;;;;;;;5128119;28;20436;-94
2022/02/28 05:17:33;;;;;;;8.67;6.37;;;;;;;;;;5124640;28;20448;-92
2022/02/28 05:20:00;;;;;;;9.63;6.13;;;;;;;;;;5105126;28;20476;-93
2022/02/28 05:22:29;;;;;;;10.97;6.37;;;;;;;;;;5126233;28;20478;-92
2022/02/28 05:24:57;;;;;;;9.03;6.00;;;;;;;;;;5120799;28;20436;-90
2022/02/28 05:27:28;;;;;;;9.37;6.20;;;;;;;;;;5122477;28;20448;-93
2022/02/28 05:29:55;;;;;;;12.30;7.07;;;;;;;;;;5118976;28;20491;-91
2022/02/28 05:32:22;;;;;;;13.77;7.07;;;;;;;;;;5119858;28;20495;-90
2022/02/28 05:34:49;;;;;;;8.77;5.90;;;;;;;;;;5119776;28;20452;-92
2022/02/28 05:37:18;;;;;;;7.40;5.80;;;;;;;;;;5116465;28;20479;-92
2022/02/28 05:39:46;;;;;;;12.30;6.80;;;;;;;;;;5119845;28;20448;-92
2022/02/28 05:42:14;;;;;;;13.20;6.50;;;;;;;;;;5097026;28;20444;-93
2022/02/28 05:44:43;;;;;;;10.23;6.60;;;;;;;;;;5099360;28;20861;-92
2022/02/28 05:47:11;;;;;;;15.57;8.20;;;;;;;;;;5099332;28;20982;-92
2022/02/28 05:49:38;;;;;;;13.20;6.80;;;;;;;;;;5100295;28;20547;-92
2022/02/28 05:52:06;;;;;;;12.57;6.57;;;;;;;;;;5099787;28;20586;-91
2022/02/28 05:54:39;;;;;;;9.03;5.97;;;;;;;;;;5098067;28;20464;-92
2022/02/28 05:57:06;;;;;;;10.57;6.07;;;;;;;;;;5099833;28;20419;-91
2022/02/28 05:59:34;;;;;;;18.00;6.87;;;-3.40;99.90;;;;;;5097646;28;20471;-93
2022/02/28 06:02:04;;;;;;;11.77;6.57;;;;;;;;;;5094595;28;20444;-93
2022/02/28 06:04:32;;;;;;;10.43;6.17;;;;;;;;;;5096467;28;20429;-93
2022/02/28 06:07:00;;;;;;;11.70;6.73;;;;;;;;;;5096394;28;20441;-92
2022/02/28 06:09:28;;;;;;;13.13;6.57;;;;;;;;;;5097189;28;20492;-92
2022/02/28 06:11:55;;;;;;;11.80;6.97;;;;;;;;;;5097390;28;20451;-91
2022/02/28 06:14:22;;;;;;;13.57;7.20;;;;;;;;;;5117575;28;21002;-92
2022/02/28 06:16:49;;;;;;;12.50;6.77;;;;;;;;;;5121267;27;20452;-93
2022/02/28 06:19:20;;;;;;;7.37;5.93;;;;;;;;;;5076747;28;20452;-92
2022/02/28 06:21:47;;;;;;;10.70;7.00;;;;;;;;;;5029490;28;20446;-92
2022/02/28 06:24:14;;;;;;;9.43;6.07;;;;;;;;;;5059317;28;20454;-91
2022/02/28 06:26:41;;;;;;;11.20;7.60;;;;;;;;;;5062101;28;20446;-91
2022/02/28 06:29:08;;;;;;;12.90;7.07;;;;;;;;;;5059272;28;20553;-91
2022/02/28 06:31:42;;;;;;;10.87;7.00;;;;;;;;;;5059352;28;20480;-91
2022/02/28 06:34:10;;;;;;;16.90;8.73;;;;;;;;;;5059659;28;20451;-92
2022/02/28 06:36:39;;;;;;;16.73;9.90;;;;;;;;;;5068189;28;20452;-93
2022/02/28 06:39:07;;;;;;;15.87;8.60;;;-1.80;99.90;;;;;;5083476;28;20456;-94
2022/02/28 06:41:35;;;;;;;11.03;7.40;;;;;;;;;;5100356;28;20448;-92
2022/02/28 06:44:02;;;;;;;12.80;8.10;;;;;;;;;;5100719;28;20428;-92
2022/02/28 06:46:29;;;;;;;10.80;7.27;;;;;;;;;;5099487;28;20433;-94
2022/02/28 06:48:56;;;;;;;13.60;8.00;;;;;;;;;;5096997;28;20505;-93
2022/02/28 06:51:24;;;;;;;13.50;8.10;;;;;;;;;;5100090;28;20437;-93
2022/02/28 06:53:52;;;;;;;11.70;7.50;;;;;;;;;;5094773;28;20451;-91
2022/02/28 06:56:19;;;;;;;11.57;7.40;;;;;;;;;;5096860;28;20449;-90
2022/02/28 06:58:47;;;;;;;17.83;7.50;;;;;;;;;;5096604;28;20826;-90
2022/02/28 07:01:14;;;;;;;13.53;7.93;;;;;;;;;;5096174;28;20799;-92
2022/02/28 07:03:41;;;;;;;11.00;7.57;;;;;;;;;;5097091;28;21001;-92
2022/02/28 07:06:13;;;;;;;12.30;8.47;;;-0.20;99.90;;;;;;5097404;28;20453;-90
2022/02/28 07:08:40;;;;;;;11.23;8.07;;;;;;;;;;5083296;28;20485;-94
2022/02/28 07:11:11;;;;;;;10.40;7.73;;;;;;;;;;5084329;28;20445;-93
2022/02/28 07:13:38;;;;;;;14.03;9.00;;;;;;;;;;5077862;28;20460;-92
2022/02/28 07:16:05;;;;;;;13.53;8.67;;;;;;;;;;5080624;28;20921;-92
2022/02/28 07:18:33;;;;;;;14.40;8.53;;;;;;;;;;5077116;28;20434;-92
2022/02/28 07:21:00;;;;;;;13.53;9.07;;;;;;;;;;5078190;28;20434;-92
2022/02/28 07:23:27;;;;;;;16.43;10.50;;;;;;;;;;5078872;28;20454;-93
2022/02/28 07:25:54;;;;;;;14.50;8.97;;;;;;;;;;5077649;28;20429;-92
2022/02/28 07:28:23;;;;;;;18.67;9.87;;;;;;;;;;5079560;28;20454;-91
2022/02/28 07:30:50;;;;;;;12.13;8.80;;;;;;;;;;5078446;28;20444;-93
2022/02/28 07:33:17;;;;;;;14.67;9.00;;;;;;;;;;5075303;28;20442;-94
2022/02/28 07:35:44;;;;;;;17.03;10.50;;;;;;;;;;5076563;28;20514;-93
2022/02/28 07:38:12;;;;;;;13.23;9.53;;;;;;;;;;5076406;28;20442;-93
2022/02/28 07:40:39;;;;;;;12.93;9.30;;;;;;;;;;5078711;28;20511;-94
2022/02/28 07:43:07;;;;;;;11.60;9.30;;;;;;;;;;5076728;28;20429;-92
2022/02/28 07:45:35;;;;;;;15.63;9.93;;;;;;;;;;5081639;28;20461;-89
2022/02/28 07:48:03;;;;;;;14.13;9.23;;;;;;;;;;5076332;28;20449;-90
2022/02/28 07:50:30;;;;;;;15.13;9.50;;;;;;;;;;5080282;28;20477;-91
2022/02/28 07:52:57;;;;;;;13.70;9.60;;;;;;;;;;5078753;28;20434;-92
2022/02/28 07:55:25;;;;;;;13.10;9.00;;;;;;;;;;5080790;28;20450;-90
2022/02/28 07:57:52;;;;;;;13.73;9.30;;;;;;;;;;5081610;28;20448;-90
2022/02/28 08:00:19;;;;;;;13.90;9.83;;;;;;;;;;5078022;28;20452;-90
2022/02/28 08:02:48;;;;;;;15.27;9.57;;;6.50;93.20;;;;;;5077877;28;20834;-91
2022/02/28 08:05:15;;;;;;;11.87;9.57;;;;;;;;;;5099253;28;20448;-90
2022/02/28 08:07:45;;;;;;;14.73;9.60;;;6.30;93.60;;;;;;5089768;28;20563;-91
2022/02/28 08:10:12;;;;;;;11.50;8.37;;;;;;;;;;5090402;28;20461;-91
2022/02/28 08:12:39;;;;;;;11.77;8.40;;;;;;;;;;5097881;28;20460;-91
2022/02/28 08:15:07;;;;;;;10.40;8.60;;;;;;;;;;5076739;28;21028;-91
2022/02/28 08:17:34;;;;;;;14.87;9.17;;;;;;;;;;5081232;28;20454;-91
2022/02/28 08:20:03;;;;;;;13.23;9.80;;;;;;;;;;5087593;28;20484;-91
2022/02/28 08:22:30;;;;;;;18.30;9.17;;;;;;;;;;5098302;28;20956;-88
2022/02/28 08:24:58;;;;;;;12.67;9.97;;;;;;;;;;5094919;28;20441;-88
2022/02/28 08:27:25;;;;;;;12.57;8.80;;;;;;;;;;5099089;28;20521;-89
2022/02/28 08:29:53;;;;;;;12.63;9.00;;;;;;;;;;5108191;27;20487;-91
2022/02/28 08:32:20;;;;;;;13.10;8.73;;;;;;;;;;5096236;28;20445;-88
2022/02/28 08:34:48;;;;;;;14.13;8.87;;;;;;;;;;5098136;28;20445;-91
2022/02/28 08:37:16;;;;;;;16.83;10.00;;;8.10;90.30;;;;;;5096344;28;20441;-90
2022/02/28 08:39:46;;;;;;;13.40;8.93;;;8.70;88.20;;;;;;5085962;22;20581;-91
2022/02/28 08:42:14;;;;;;;11.80;9.87;;;8.40;87.00;;;;;;5063871;28;20785;-91
2022/02/28 08:44:43;;;;;;;11.17;8.87;;;;;;;;;;5061289;28;20446;-92
2022/02/28 08:47:19;;;;;;;13.27;9.67;;;;;;;;;;5035938;28;20472;-95
2022/02/28 08:55:07;;;;;;;12.87;8.80;;;12.00;83.30;;;;;;5029416;22;20527;-92
2022/02/28 08:57:36;;;;;;;11.80;8.70;;;;;;;;;;5023367;28;20429;-93
2022/02/28 09:00:05;;;;;;;12.90;8.80;;;;;;;;;;5019277;28;20492;-92
2022/02/28 09:02:32;;;;;;;10.57;7.90;;;;;;;;;;5017680;28;20455;-93
2022/02/28 09:05:03;;;;;;;10.87;8.40;;;;;;;;;;5016312;28;20459;-94
2022/02/28 09:07:31;;;;;;;11.90;9.53;;;;;;;;;;5019611;28;20456;-93
2022/02/28 09:12:46;;;;;;;9.60;7.90;;;;;;;;;;5031378;28;20448;-94
2022/02/28 09:15:15;;;;;;;9.77;8.50;;;;;;;;;;5017075;28;20452;-93
2022/02/28 09:17:45;;;;;;;11.90;8.00;;;;;;;;;;5018226;28;20456;-93
2022/02/28 09:20:12;;;;;;;12.43;8.80;;;;;;;;;;5017208;28;20483;-95
2022/02/28 09:22:40;;;;;;;9.87;8.20;;;;;;;;;;5017624;28;20452;-92
2022/02/28 09:25:09;;;;;;;10.27;8.17;;;;;;;;;;5020358;28;20472;-90
2022/02/28 09:27:37;;;;;;;11.67;8.60;;;;;;;;;;5017926;28;20463;-93
2022/02/28 09:30:04;;;;;;;12.33;9.40;;;;;;;;;;5017456;28;20456;-92
2022/02/28 09:32:31;;;;;;;10.23;8.07;;;;;;;;;;5022008;28;20477;-91
2022/02/28 09:34:59;;;;;;;10.50;8.00;;;;;;;;;;5018313;28;20483;-87
2022/02/28 09:37:27;;;;;;;10.97;8.60;;;;;;;;;;5017129;28;20452;-96
2022/02/28 09:39:58;;;;;;;13.03;8.13;;;;;;;;;;5019554;28;20526;-93
2022/02/28 09:42:27;;;;;;;11.10;8.00;;;;;;;;;;5017587;28;20464;-94
2022/02/28 09:44:54;;;;;;;11.90;9.13;;;10.70;71.80;;;;;;5018136;28;20452;-89
2022/02/28 09:47:24;;;;;;;10.80;8.00;;;10.50;72.70;;;;;;5004082;28;20437;-93
2022/02/28 09:49:52;;;;;;;8.47;7.00;;;;;;;;;;4996974;28;20468;-87
2022/02/28 09:52:27;;;;;;;10.20;6.87;;;;;;;;;;5004792;28;20511;-94
2022/02/28 09:54:55;;;;;;;8.77;7.37;;;;;;;;;;5019303;28;20476;-94
2022/02/28 09:57:27;;;;;;;8.67;7.80;;;;;;;;;;5012067;28;20500;-96
2022/02/28 10:05:59;;;;;;;12.47;7.77;;;;;;;;;;5059575;23;20493;-95
2022/02/28 10:08:28;;;;;;;11.30;8.20;;;;;;;;;;5109418;22;20511;-95
2022/02/28 10:10:56;;;;;;;7.80;7.10;;;;;;;;;;5112506;28;21020;-95
2022/02/28 10:13:39;;;;;;;8.13;6.83;;;;;;;;;;5089133;22;20485;-96
2022/02/28 10:16:28;;;;;;;8.60;7.57;;;;;;;;;;5087445;28;20446;-95
2022/02/28 10:19:02;;;;;;;11.17;8.10;;;;;;;;;;5092278;28;20462;-96
2022/02/28 10:21:40;;;;;;;10.30;8.80;;;;;;;;;;5089038;28;20586;-95
2022/02/28 10:24:13;;;;;;;8.73;6.77;;;;;;;;;;5084543;28;20495;-95
2022/02/28 10:26:42;;;;;;;9.70;7.97;;;;;;;;;;5081680;28;20453;-94
2022/02/28 10:29:11;;;;;;;10.37;7.43;;;;;;;;;;5078199;28;20454;-94
2022/02/28 10:31:42;;;;;;;8.10;7.07;;;;;;;;;;5088203;28;20470;-93
2022/02/28 10:34:17;;;;;;;8.77;6.97;;;;;;;;;;5085843;28;20845;-94
2022/02/28 10:36:52;;;;;;;10.23;7.50;;;;;;;;;;5084445;28;20533;-95
2022/02/28 10:39:24;;;;;;;11.17;8.10;;;;;;;;;;5082329;28;20456;-94
2022/02/28 10:41:52;;;;;;;9.87;7.83;;;;;;;;;;5080051;28;20457;-93
2022/02/28 10:44:22;;;;;;;11.43;8.17;;;;;;;;;;5078971;28;20541;-92
2022/02/28 10:47:13;;;;;;;9.83;8.00;;;10.70;69.10;;;;;;5089966;28;20509;-92
2022/02/28 10:49:41;;;;;;;11.27;8.20;;;12.00;66.70;;;;;;5097207;28;20434;-94
2022/02/28 10:52:10;;;;;;;11.53;8.90;;;12.20;93.40;;;;;;5074360;28;20445;-93
2022/02/28 10:55:04;;;;;;;9.73;8.07;;;11.90;66.00;;;;;;5072340;28;20485;-91
2022/02/28 10:57:33;;;;;;;10.00;8.67;;;11.20;93.30;;;;;;5085496;28;20477;-95
2022/02/28 11:00:01;;;;;;;10.83;9.60;;;;;;;;;;5095310;28;20487;-92
2022/02/28 11:02:32;;;;;;;13.43;10.00;;;11.40;64.90;;;;;;5098676;28;20449;-93
2022/02/28 11:05:07;;;;;;;11.43;8.77;;;10.90;67.00;;;;;;5100766;28;20454;-91
2022/02/28 11:07:43;;;;;;;10.13;8.53;;;11.10;65.90;;;;;;5098196;28;20518;-90
2022/02/28 11:10:11;;;;;;;10.90;8.33;;;11.20;67.00;;;;;;5104016;28;20502;-91
2022/02/28 11:12:38;;;;;;;12.77;8.33;;;;;;;;;;5093845;28;20473;-91
2022/02/28 11:15:10;;;;;;;13.17;9.13;;;11.70;98.70;;;;;;5101307;28;20449;-92
2022/02/28 11:17:43;;;;;;;13.00;9.57;;;11.60;65.40;;;;;;5100133;28;20452;-92
2022/02/28 11:20:13;;;;;;;14.20;10.20;;;11.40;64.20;;;;;;5104084;28;20546;-91
2022/02/28 11:22:44;;;;;;;12.63;9.00;;;12.10;65.10;;;;;;5097323;28;20449;-92
2022/02/28 11:25:19;;;;;;;10.90;9.50;;;12.70;93.00;;;;;;5103821;28;20457;-92
2022/02/28 11:27:50;;;;;;;13.93;10.63;;;13.00;63.90;;;;;;5101790;28;20472;-92
2022/02/28 11:30:21;;;;;;;16.10;10.30;;;12.80;62.30;;;;;;5099593;28;20467;-91
2022/02/28 11:32:56;;;;;;;10.00;8.93;;;12.30;63.10;;;;;;5079199;28;20941;-92
2022/02/28 11:35:45;;;;;;;12.70;10.33;;;12.30;64.10;;;;;;5076368;28;20958;-92
2022/02/28 11:38:30;;;;;;;12.33;9.53;;;11.80;65.10;;;;;;5083076;28;20429;-91
2022/02/28 11:41:00;;;;;;;12.80;10.27;;;12.30;64.00;;;;;;5078478;28;20485;-92
2022/02/28 11:43:28;;;;;;;12.50;10.47;;;13.10;63.40;;;;;;5078627;28;20460;-90
2022/02/28 11:45:57;;;;;;;11.87;9.17;;;12.80;62.70;;;;;;5075610;28;20458;-93
2022/02/28 11:48:35;;;;;;;13.40;9.80;;;12.70;62.50;;;;;;5083157;28;20520;-91
2022/02/28 11:51:04;;;;;;;15.23;9.30;;;12.90;62.90;;;;;;5077763;22;20509;-91
2022/02/28 11:53:53;;;;;;;12.30;8.93;;;12.00;92.60;;;;;;5044549;28;20440;-91
2022/02/28 11:56:58;;;;;;;13.50;10.70;;;12.50;65.40;;;;;;5041327;28;20518;-91
2022/02/28 11:59:27;;;;;;;12.53;8.90;;;12.20;64.00;;;;;;5045850;28;20978;-91
2022/02/28 12:02:26;;;;;;;13.77;9.80;;;12.40;61.90;;;;;;5098338;23;20493;-90
2022/02/28 12:05:29;;;;;;;14.07;10.40;;;12.50;60.50;;;;;;5106060;28;20441;-91
2022/02/28 12:08:00;;;;;;;11.40;9.43;;;12.50;61.10;;;;;;5114186;22;20480;-92
2022/02/28 12:10:28;;;;;;;11.07;8.90;;;;;;;;;;5106209;28;20441;-92
2022/02/28 12:12:59;;;;;;;13.83;8.83;;;11.80;59.60;;;;;;5088412;28;20458;-90
2022/02/28 12:15:26;;;;;;;10.37;8.30;;;;;;;;;;5079381;28;20414;-91
2022/02/28 12:18:22;;;;;;;19.20;9.27;;;10.90;63.00;;;;;;5090404;22;20561;-90
2022/02/28 12:20:52;;;;;;;11.40;9.13;;;;;;;;;;5088000;23;20473;31
2022/02/28 12:23:47;;;;;;;11.90;9.83;;;12.40;61.50;;;;;;5002386;28;20465;-91
2022/02/28 12:26:18;;;;;;;14.30;9.83;;;13.10;62.30;;;;;;5023103;28;20456;-90
2022/02/28 12:28:52;;;;;;;10.73;7.87;;;13.70;91.70;;;;;;4986554;28;20449;-91
2022/02/28 12:31:40;;;;;;;12.70;10.50;;;11.70;59.20;;;;;;4983733;28;20454;-91
2022/02/28 12:34:12;;;;;;;12.67;10.00;;;11.60;61.10;;;;;;4999894;28;20473;-92
2022/02/28 12:36:44;;;;;;;13.60;8.73;;;12.60;97.60;;;;;;5054753;22;20482;-92
2022/02/28 12:39:16;;;;;;;15.73;9.17;;;11.90;59.90;;;;;;5068260;22;20471;-93
2022/02/28 12:41:44;;;;;;;11.13;8.30;;;12.10;60.60;;;;;;5064945;28;21004;-89
2022/02/28 12:44:14;;;;;;;11.60;9.07;;;12.10;62.40;;;;;;5079131;28;20445;-92
2022/02/28 12:46:44;;;;;;;11.80;8.57;;;12.60;58.30;;;;;;5075974;28;20449;-93
2022/02/28 12:49:15;;;;;;;11.70;8.47;;;12.30;93.30;;;;;;5076925;28;20876;-94
2022/02/28 12:51:42;;;;;;;14.63;9.40;;;;;;;;;;5075628;28;20847;-91
2022/02/28 12:54:13;;;;;;;10.50;8.77;;;13.40;60.80;;;;;;5074902;28;20941;-93
2022/02/28 12:56:46;;;;;;;10.37;8.27;;;12.90;57.70;;;;;;5070018;28;20460;-90
2022/02/28 12:59:14;;;;;;;11.80;8.70;;;12.60;58.90;;;;;;5075157;28;21012;-93
2022/02/28 13:01:41;;;;;;;11.20;8.33;;;12.90;58.20;;;;;;5075694;28;20507;-94
2022/02/28 13:04:10;;;;;;;17.43;8.50;;;13.40;58.40;;;;;;5077443;28;20457;-91
2022/02/28 13:06:39;;;;;;;13.27;9.00;;;12.80;56.80;;;;;;5077065;28;20807;-92
2022/02/28 13:09:08;;;;;;;9.53;7.63;;;13.00;58.30;;;;;;5054568;28;20461;-92
2022/02/28 13:11:42;;;;;;;10.70;7.80;;;13.50;56.70;;;;;;5055145;28;20447;-94
2022/02/28 13:14:11;;;;;;;9.73;7.93;;;13.70;55.30;;;;;;5058176;28;20474;-93
2022/02/28 13:16:40;;;;;;;14.90;9.37;;;13.40;57.10;;;;;;5056338;28;20427;-87
2022/02/28 13:19:10;;;;;;;10.60;8.77;;;13.50;56.30;;;;;;5059084;28;20449;-88
2022/02/28 13:21:39;;;;;;;9.93;8.63;;;13.80;56.40;;;;;;5055129;28;20481;-88
2022/02/28 13:24:10;;;;;;;10.33;8.20;;;13.40;84.80;;;;;;5055949;28;20446;-92
2022/02/28 13:26:41;;;;;;;12.80;9.23;;;12.10;55.60;;;;;;5055473;28;20443;-90
2022/02/28 13:29:09;;;;;;;11.27;8.43;;;13.00;56.00;;;;;;5066270;28;20442;-91
2022/02/28 13:31:41;;;;;;;12.27;7.97;;;12.10;53.70;;;;;;5078160;28;20491;-90
2022/02/28 13:34:09;;;;;;;9.00;8.10;;;12.00;54.40;;;;;;5070441;28;20445;-87
2022/02/28 13:36:38;;;;;;;12.80;8.60;;;12.80;54.30;;;;;;5075323;28;20441;-88
2022/02/28 13:39:07;;;;;;;9.70;7.67;;;12.70;53.80;;;;;;5078263;28;20456;-88
2022/02/28 13:41:41;;;;;;;9.80;7.50;;;13.50;52.90;;;;;;5079920;28;21370;-88
2022/02/28 13:44:13;;;;;;;10.13;6.50;;;13.50;51.50;;;;;;5077426;28;20445;-88
2022/02/28 13:46:58;;;;;;;9.43;7.63;;;13.60;51.30;;;;;;5082967;28;20449;-89
2022/02/28 13:49:32;;;;;;;6.97;6.20;;;13.60;51.50;;;;;;5081643;28;20806;-87
2022/02/28 13:51:59;;;;;;;9.73;7.43;;;;;;;;;;5070099;28;20446;-90
2022/02/28 13:54:26;;;;;;;9.10;7.43;;;;;;;;;;5063949;28;20442;-88
2022/02/28 13:56:54;;;;;;;12.30;7.20;;;12.10;53.50;;;;;;5062311;28;20457;-88
2022/02/28 13:59:26;;;;;;;7.97;6.63;;;12.60;52.30;;;;;;5061874;28;20442;-89
2022/02/28 14:01:55;;;;;;;9.57;7.13;;;12.80;53.10;;;;;;5060604;28;20485;-88
2022/02/28 14:04:23;;;;;;;8.80;7.50;;;12.50;53.60;;;;;;5067133;28;20452;-89
2022/02/28 14:06:57;;;;;;;9.90;7.40;;;13.20;52.70;;;;;;5071180;28;20453;-89
2022/02/28 14:09:25;;;;;;;12.73;7.93;;;;;;;;;;5071367;28;20437;-87
2022/02/28 14:11:52;;;;;;;11.57;7.90;;;;;;;;;;5070361;28;20431;-90
2022/02/28 14:14:21;;;;;;;8.80;7.00;;;12.40;51.40;;;;;;5070349;28;20446;-87
2022/02/28 14:16:57;;;;;;;9.40;7.53;;;12.40;51.50;;;;;;5058435;28;20446;-88
2022/02/28 14:19:32;;;;;;;9.70;6.97;;;12.80;50.90;;;;;;5062631;28;20438;-90
2022/02/28 14:22:05;;;;;;;10.57;7.20;;;12.40;51.80;;;;;;5068747;28;20497;-88
2022/02/28 14:24:35;;;;;;;8.27;7.00;;;;;;;;;;5083676;28;20445;-89
2022/02/28 14:27:02;;;;;;;9.10;6.63;;;;;;;;;;5068751;28;20480;-87
2022/02/28 14:29:36;;;;;;;9.40;7.27;;;12.40;50.40;;;;;;5068573;28;20797;-92
2022/02/28 14:32:12;;;;;;;8.30;6.63;;;12.40;51.00;;;;;;5066912;28;20929;-85